NCAR-RAP Real-Time Weather Data

Output produced by METARs form (26 May 2022  08:55 UTC)
found at http://weather.rap.ucar.edu/surface/
 
KBHM 260753Z 14011KT 10SM -RA BKN110 20/18 A3000 RMK AO2 SLP152 P0006 T02000183
KBHM 260653Z 17007KT 8SM -RA SCT013 SCT055 BKN090 21/19 A3004 RMK AO2 SLP166 P0007 T02110194
KBHM 260646Z 16007KT 8SM -RA SCT013 SCT025 OVC110 21/19 A3004 RMK AO2 P0007 T02110194
KBHM 260628Z 16004KT 9SM -RA SCT009 BKN016 OVC100 21/19 A3003 RMK AO2 P0004 T02110194
KBHM 260600Z 14008KT 10SM -RA FEW013 OVC110 21/19 A3003 RMK AO2 P0000 T02110194
KBHM 260553Z 16007KT 9SM -RA BKN013 BKN018 OVC120 21/19 A3002 RMK AO2 RAE00B41 SLP160 P0001 60028 T02110194 10233 20206 402610206 56009
KBHM 260536Z 13007KT 10SM BKN013 BKN018 OVC120 21/19 A3003 RMK AO2 RAE00 P0000 T02110194
KBHM 260527Z 14005KT 10SM BKN015 BKN110 21/19 A3003 RMK AO2 RAE00 P0000 T02110194
KBHM 260453Z 13004KT 10SM -RA BKN110 21/19 A3003 RMK AO2 SLP161 P0002 T02110194
KBHM 260353Z 17006KT 6SM -RA BR FEW021 BKN095 OVC110 21/18 A3005 RMK AO2 TSE52 SLP167 TS MOV NE P0023 T02060183
KBHM 260336Z 14010G16KT 6SM TSRA BR FEW020 SCT060 OVC090 22/19 A3005 RMK AO2 OCNL LTGICCC S-W TS S-W MOV NE P0018 T02170194
KBHM 260315Z 00000KT 3SM +TSRA BR BKN015 BKN025 OVC075 21/19 A3006 RMK AO2 LTG DSNT S OCNL LTGICCC S-SW TS S-SW MOV NE P0013 T02060189
KBHM 260309Z VRB03KT 1 3/4SM TSRA BR FEW012 BKN019 OVC025 21/19 A3006 RMK AO2 VIS 3/4V5 LTG DSNT S OCNL LTGICCC S-SW TS S-SW MOV NE P0006 T02060189
KBHM 260253Z 00000KT 10SM -TSRA OVC018 21/19 A3005 RMK AO2 LTG DSNT S RAE06B52 TSB33 SLP169 OCNL LTGIC SW TS SW MOV N P0001 60002 T02110189 51016
KBHM 260239Z 00000KT 10SM TS BKN017 BKN022 OVC028 21/18 A3005 RMK AO2 LTG DSNT S RAE06 TSB33 OCNL LTGIC SW TS SW MOV N P0001 T02110183
KBHM 260153Z 23007KT 9SM -RA BKN016 OVC023 21/18 A3005 RMK AO2 LTG DSNT N AND SW RAB49 SLP167 P0001 T02110178
KBHM 260121Z 24010G17KT 10SM SCT016 BKN021 OVC035 22/18 A3003 RMK AO2 T02220178
KBHM 260053Z 14006KT 10SM FEW025 SCT034 BKN045 OVC250 23/19 A3001 RMK AO2 LTG DSNT N SLP156 T02330194
KBHM 252353Z 13008KT 10SM FEW038 BKN080 23/19 A3000 RMK AO2 LTG DSNT W RAE04 SLP153 P0000 60000 T02330194 10261 20228 55003
KBHM 252253Z 13007KT 10SM -RA FEW025 BKN065 OVC110 23/20 A3000 RMK AO2 RAB36 SLP152 P0000 T02280200
KBHM 252153Z 15008KT 10SM FEW029 SCT070 OVC250 25/19 A3001 RMK AO2 SLP153 T02500189
KBHM 252109Z 15011G18KT 10SM SCT026 OVC070 25/19 A3000 RMK AO2 T02500189
KBHM 252053Z 14008G16KT 10SM BKN026 BKN035 BKN080 26/19 A3001 RMK AO2 SLP156 T02560189 56007
KBHM 251953Z 15010G22KT 10SM SCT023 BKN030 BKN036 BKN250 26/19 A3002 RMK AO2 SLP159 T02560189
KBHM 251853Z 13011G19KT 10SM FEW022 SCT120 BKN150 OVC250 25/19 A3002 RMK AO2 SLP158 T02500194
KBHM 251753Z 15008KT 10SM FEW024 BKN150 OVC250 24/19 A3004 RMK AO2 SLP164 60001 T02440189 10256 20217 50002
KBHM 251721Z 15012G24KT 130V200 10SM SCT022 BKN150 OVC250 25/19 A3003 RMK AO2 T02500189
KBHM 251653Z 17008G16KT 10SM BKN020 BKN028 24/19 A3004 RMK AO2 SLP165 T02440194
KBHM 251553Z 16011G18KT 10SM BKN020 BKN028 BKN250 25/19 A3003 RMK AO2 RAB08E18 SLP162 P0000 T02500194
KBHM 251550Z 16014G20KT 10SM BKN020 BKN026 BKN250 25/19 A3003 RMK AO2 RAB08E18 P0000
KBHM 251500Z 14008KT 10SM SCT015 BKN045 OVC250 24/20 A3004 RMK AO2 LTG DSNT E T02390200
KBHM 251453Z 16009KT 10SM BKN015 BKN047 BKN060 OVC250 23/20 A3005 RMK AO2 LTG DSNT E RAE24 SLP168 P0000 60001 T02330200 50001
KBHM 251418Z 15006KT 10SM -RA BKN015 BKN020 OVC110 22/19 A3006 RMK AO2 LTG DSNT NE-SE P0000 T02220194
KBHM 251353Z 16007KT 10SM -RA FEW049 SCT060 OVC110 22/19 A3007 RMK AO2 LTG DSNT E AND SE RAB33 SLP175 P0000 T02220194
KBHM 251253Z 15005KT 10SM FEW012 FEW055 BKN070 OVC150 22/19 A3008 RMK AO2 RAB21E31 SLP177 P0001 T02170189
KBHM 251153Z 12006KT 10SM FEW019 BKN110 BKN250 22/19 A3005 RMK AO2 SLP167 70058 T02170189 10217 20206 51005
KBHM 251148Z 12008KT 10SM FEW018 BKN110 BKN250 22/18 A3004 RMK AO2
KBHM 251125Z 11009KT 10SM BKN015 BKN250 21/18 A3004 RMK AO2 T02110183
KBHM 251053Z 12007KT 10SM OVC013 21/18 A3003 RMK AO2 SLP163 T02110183
KBHM 251037Z 11010KT 10SM BKN014 21/18 A3003 RMK AO2 T02110183
KBHM 250953Z 12008KT 10SM OVC150 21/18 A3003 RMK AO2 SLP161 T02060183
KBHM 250853Z 12006KT 10SM OVC150 21/19 A3003 RMK AO2 SLP160 T02110189 55003
KBHM 250753Z 11006KT 10SM OVC250 21/19 A3003 RMK AO2 SLP159 T02060189
KBHM 250653Z 09004KT 10SM OVC250 21/19 A3003 RMK AO2 SLP162 T02060189
KBHM 250553Z 12007KT 10SM CLR 21/19 A3004 RMK AO2 SLP164 60013 T02060189 10217 20200 402890200 58004
KBHM 250453Z 09004KT 10SM FEW023 SCT100 21/18 A3004 RMK AO2 SLP166 T02060183
KBHM 250353Z 09004KT 10SM FEW023 FEW085 21/18 A3005 RMK AO2 RAB29E44 SLP167 P0013 T02060183
KBHM 250338Z 09007KT 060V130 3SM -RA SCT027 BKN044 BKN085 21/18 A3006 RMK AO2 RAB29 P0013 T02060178
KBHM 250335Z 10010G16KT 2 1/2SM +RA BKN027 BKN042 BKN100 21/18 A3006 RMK AO2 RAB29 P0006 T02060178
KBHM 250253Z 08004KT 10SM SCT050 OVC110 21/18 A3005 RMK AO2 SLP168 T02110178 51009
KBHM 250153Z 06004KT 10SM BKN100 BKN250 21/19 A3004 RMK AO2 SLP165 T02110189
KBHM 250053Z 00000KT 10SM BKN100 OVC250 22/19 A3003 RMK AO2 SLP162 T02170194
KBHM 242353Z 05004KT 10SM SCT120 OVC250 22/19 A3002 RMK AO2 LTG DSNT NE RAE20 SLP159 P0000 60033 T02170194 10289 20217 51009
KBHM 242253Z 11004KT 7SM -RA SCT048 OVC100 22/20 A3002 RMK AO2 LTG DSNT ALQDS RAB17 TSE27 SLP159 TS MOV NE P0003 T02170200
KBHM 242233Z 24005KT 5SM -RA FEW029 BKN048 OVC110 22/19 A3001 RMK AO2 LTG DSNT ALQDS RAB17 TSE27 TS MOV NE P0003 T02220194
KBHM 242153Z 16004KT 7SM TS SCT033 SCT055 BKN075 OVC250 23/19 A3001 RMK AO2 PK WND 16038/2125 LTG DSNT S-W RAB25E49 TSB13E28B29 SLP155 OCNL LTGIC N TS N MOV NE P0030 T02280194
KBHM 242143Z 12005KT 3SM -TSRA SCT035 SCT046 BKN060 OVC250 23/20 A2999 RMK AO2 PK WND 16038/2125 LTG DSNT S-W RAB25 TSB13E28B29 OCNL LTGIC N TS N MOV NE P0030 T02280200
KBHM 242125Z 17029G38KT 1 1/4SM +TSRA SCT090 BKN250 26/20 A3003 RMK AO2 PK WND 16038/2125 LTG DSNT SW RAB25 TSB13 PRESRR OCNL LTGIC S TS S MOV NE P0000 T02610200
KBHM 242119Z 13009KT 10SM TS SCT090 BKN250 29/20 A2999 RMK AO2 LTG DSNT S AND SW TSB13 OCNL LTGIC S TS S MOV NE T02890200
KBHM 242053Z 14008KT 10SM SCT035 BKN250 28/20 A3000 RMK AO2 LTG DSNT S SLP149 T02830200 56027
KBHM 241953Z 13007KT 10SM FEW023 BKN036 27/21 A3001 RMK AO2 SLP155 T02670206
KBHM 241853Z 16005KT 10SM FEW046 SCT060 BKN080 BKN250 25/19 A3005 RMK AO2 SLP168 T02500194 $
KBHM 241753Z 14003KT 10SM FEW014 FEW075 BKN120 OVC200 24/21 A3008 RMK AO2 RAE40 SLP177 P0008 60012 T02390206 10244 20211 58005 $
KBHM 241653Z VRB04KT 6SM -RA FEW055 BKN085 OVC100 24/19 A3009 RMK AO2 RAB33 SLP181 P0000 T02390194 $
KBHM 241553Z 15004KT 10SM FEW012 SCT095 BKN140 24/20 A3008 RMK AO2 RAE18 SLP179 P0004 T02390200 $
KBHM 241453Z 13003KT 10SM -RA FEW032 BKN085 OVC100 23/19 A3009 RMK AO2 RAB23 SLP183 P0000 60000 T02280194 53008 $
KBHM 241413Z 11003KT 10SM SCT025 BKN085 OVC110 22/19 A3009 RMK AO2 T02220189 $
KBHM 241353Z 15004KT 10SM BKN026 OVC110 22/19 A3009 RMK AO2 SLP181 T02220189 $
KBHM 241253Z 07004KT 10SM FEW012 BKN034 OVC140 22/19 A3005 RMK AO2 SLP169 T02170189 $
KBHM 241153Z 15003KT 10SM SCT009 SCT027 21/19 A3007 RMK AO2 SLP175 70023 T02110189 10211 20200 51016
KBHM 241150Z 13005KT 10SM SCT009 SCT027 21/19 A3007 RMK AO2
KBHM 241129Z 15003KT 10SM BKN008 21/19 A3007 RMK AO2 T02110189
KBHM 241053Z 00000KT 10SM SCT009 BKN030 21/19 A3006 RMK AO2 SLP173 T02060189
KBHM 241044Z 00000KT 10SM SCT009 BKN030 21/19 A3006 RMK AO2 T02060189
KBHM 241036Z 00000KT 10SM OVC009 21/18 A3005 RMK AO2 T02060183
KBHM 241029Z 03003KT 10SM SCT007 21/18 A3005 RMK AO2 T02060183
KBHM 240953Z 03003KT 10SM BKN007 20/18 A3004 RMK AO2 SLP165 T02000183
KBHM 240904Z 05005KT 10SM FEW009 20/18 A3003 RMK AO2 T02000183